METAR AND TAF INFORMATION
METAR FOR KBWI
ADDS - METARS form results

(2223 UTC 24 April 2018)
Data provider http://aviationweather.gov/adds/metars/
 
METAR text: KBWI 242154Z 09010KT 8SM -RA BKN041 BKN047 OVC075 14/11 A3009 RMK AO2 SLP190 P0001 T01440111
Conditions at: KBWI (BALTO/WASH INTL , MD, US) observed 2154 UTC 24 April 2018
Temperature: 14.4°C (58°F)
Dewpoint: 11.1°C (52°F) [RH = 81%]
Pressure (altimeter): 30.09 inches Hg (1019.0 mb)
[Sea-level pressure: 1019.0 mb]
Winds: from the E (90 degrees) at 12 MPH (10 knots; 5.2 m/s)
Visibility: 8 miles (13 km)
Ceiling: 4100 feet AGL
Clouds: broken clouds at 4100 feet AGL
broken clouds at 4700 feet AGL
overcast cloud deck at 7500 feet AGL
Weather: -RA  (light rain)

Forecast for: KBWI (BALTO/WASH INTL , MD, US)
Text: KBWI 242057Z 2421/2524 10012KT P6SM -RA OVC045
Forecast period: 2100 UTC 24 April 2018 to 0000 UTC 25 April 2018
Forecast type: FROM: standard forecast or significant change
Winds: from the E (100 degrees) at 14 MPH (12 knots; 6.2 m/s)
Visibility: 6 or more miles (10+ km)
Ceiling: 4500 feet AGL
Clouds: overcast cloud deck at 4500 feet AGL
Weather: -RA  (light rain)
Forecast for: KBWI (BALTO/WASH INTL , MD, US)
Text: KBWI 242057Z 2421/2524 10012KT P6SM -RA OVC045
Forecast period: 2100 UTC 24 April 2018 to 0000 UTC 25 April 2018
Forecast type: FROM: standard forecast or significant change
Winds: from the E (100 degrees) at 14 MPH (12 knots; 6.2 m/s)
Visibility: 6 or more miles (10+ km)
Ceiling: 4500 feet AGL
Clouds: overcast cloud deck at 4500 feet AGL
Weather: -RA  (light rain)
Forecast for: KBWI (BALTO/WASH INTL , MD, US)
Text: KBWI 242057Z 2421/2524 10012KT P6SM -RA OVC045
Forecast period: 0000 to 0400 UTC 25 April 2018
Forecast type: FROM: standard forecast or significant change
Winds: from the E (100 degrees) at 14 MPH (12 knots; 6.2 m/s)
Visibility: 6 or more miles (10+ km)
Ceiling: 2500 feet AGL
Clouds: overcast cloud deck at 2500 feet AGL
Weather: -RA  (light rain)
Forecast for: KBWI (BALTO/WASH INTL , MD, US)
Text: KBWI 242057Z 2421/2524 10012KT P6SM -RA OVC045
Forecast period: 0000 to 0400 UTC 25 April 2018
Forecast type: FROM: standard forecast or significant change
Winds: from the E (100 degrees) at 14 MPH (12 knots; 6.2 m/s)
Visibility: 6 or more miles (10+ km)
Ceiling: 2500 feet AGL
Clouds: overcast cloud deck at 2500 feet AGL
Weather: -RA  (light rain)
Forecast for: KBWI (BALTO/WASH INTL , MD, US)
Text: KBWI 242057Z 2421/2524 10012KT P6SM -RA OVC045
Forecast period: 0400 to 0900 UTC 25 April 2018
Forecast type: FROM: standard forecast or significant change
Winds: from the E (80 degrees) at 13 MPH (11 knots; 5.7 m/s)
Visibility: 6 miles (10 km)
Ceiling: 800 feet AGL
Clouds: overcast cloud deck at 800 feet AGL
Weather: -RA  (light rain)
Forecast for: KBWI (BALTO/WASH INTL , MD, US)
Text: KBWI 242057Z 2421/2524 10012KT P6SM -RA OVC045
Forecast period: 0400 to 0900 UTC 25 April 2018
Forecast type: FROM: standard forecast or significant change
Winds: from the E (80 degrees) at 13 MPH (11 knots; 5.7 m/s)
Visibility: 6 miles (10 km)
Ceiling: 800 feet AGL
Clouds: overcast cloud deck at 800 feet AGL
Weather: -RA  (light rain)
Forecast for: KBWI (BALTO/WASH INTL , MD, US)
Text: KBWI 242057Z 2421/2524 10012KT P6SM -RA OVC045
Forecast period: 0900 to 1200 UTC 25 April 2018
Forecast type: FROM: standard forecast or significant change
Winds: from the E (80 degrees) at 9 MPH (8 knots; 4.2 m/s)
Visibility: 4 miles (6 km)
Ceiling: 800 feet AGL
Clouds: overcast cloud deck at 800 feet AGL
Weather: -SHRA BR  (light rain showers, mist)
Forecast for: KBWI (BALTO/WASH INTL , MD, US)
Text: KBWI 242057Z 2421/2524 10012KT P6SM -RA OVC045
Forecast period: 0900 to 1200 UTC 25 April 2018
Forecast type: FROM: standard forecast or significant change
Winds: from the E (80 degrees) at 9 MPH (8 knots; 4.2 m/s)
Visibility: 4 miles (6 km)
Ceiling: 800 feet AGL
Clouds: overcast cloud deck at 800 feet AGL
Weather: -SHRA BR  (light rain showers, mist)
Forecast for: KBWI (BALTO/WASH INTL , MD, US)
Text: KBWI 242057Z 2421/2524 10012KT P6SM -RA OVC045
Forecast period: 1200 to 1500 UTC 25 April 2018
Forecast type: FROM: standard forecast or significant change
Winds: from the NE (50 degrees) at 6 MPH (5 knots; 2.6 m/s)
Visibility: 2.00 miles (3.22 km)
Ceiling: 1000 feet AGL
Clouds: overcast cloud deck at 1000 feet AGL
Weather: BR  (mist)
Forecast for: KBWI (BALTO/WASH INTL , MD, US)
Text: KBWI 242057Z 2421/2524 10012KT P6SM -RA OVC045
Forecast period: 1200 to 1500 UTC 25 April 2018
Forecast type: FROM: standard forecast or significant change
Winds: from the NE (50 degrees) at 6 MPH (5 knots; 2.6 m/s)
Visibility: 2.00 miles (3.22 km)
Ceiling: 1000 feet AGL
Clouds: overcast cloud deck at 1000 feet AGL
Weather: BR  (mist)
Forecast for: KBWI (BALTO/WASH INTL , MD, US)
Text: KBWI 242057Z 2421/2524 10012KT P6SM -RA OVC045
Forecast period: 1500 to 2000 UTC 25 April 2018
Forecast type: FROM: standard forecast or significant change
Winds: from the N (10 degrees) at 5 MPH (4 knots; 2.1 m/s)
Visibility: 6 or more miles (10+ km)
Ceiling: 1000 feet AGL
Clouds: overcast cloud deck at 1000 feet AGL
Weather: no significant weather forecast for this period
Forecast for: KBWI (BALTO/WASH INTL , MD, US)
Text: KBWI 242057Z 2421/2524 10012KT P6SM -RA OVC045
Forecast period: 1500 to 2000 UTC 25 April 2018
Forecast type: FROM: standard forecast or significant change
Winds: from the N (10 degrees) at 5 MPH (4 knots; 2.1 m/s)
Visibility: 6 or more miles (10+ km)
Ceiling: 1000 feet AGL
Clouds: overcast cloud deck at 1000 feet AGL
Weather: no significant weather forecast for this period
Forecast for: KBWI (BALTO/WASH INTL , MD, US)
Text: KBWI 242057Z 2421/2524 10012KT P6SM -RA OVC045
Forecast period: 2000 UTC 25 April 2018 to 0000 UTC 26 April 2018
Forecast type: FROM: standard forecast or significant change
Winds: from the NW (320 degrees) at 8 MPH (7 knots; 3.6 m/s)
Visibility: 6 or more miles (10+ km)
Ceiling: 2500 feet AGL
Clouds: overcast cloud deck at 2500 feet AGL
Weather: no significant weather forecast for this period
Forecast for: KBWI (BALTO/WASH INTL , MD, US)
Text: KBWI 242057Z 2421/2524 10012KT P6SM -RA OVC045
Forecast period: 2000 UTC 25 April 2018 to 0000 UTC 26 April 2018
Forecast type: FROM: standard forecast or significant change
Winds: from the NW (320 degrees) at 8 MPH (7 knots; 3.6 m/s)
Visibility: 6 or more miles (10+ km)
Ceiling: 2500 feet AGL
Clouds: overcast cloud deck at 2500 feet AGL
Weather: no significant weather forecast for this period

 AIRPORT MAP

 RUNWAY INFORMATION
Runway 04 Runway length 6000 ft Runway width 150 ft
Runway elevation 146 ft Runway displaced threshold 0 ft Runway heading 33
Runway 22 Runway length 6000 ft Runway width 150 ft
Runway elevation 138 ft Runway displaced threshold 0 ft Runway heading 213
Runway 10 Runway length 10502 ft Runway width 200 ft
Runway elevation 141 ft Runway displaced threshold 550 ft Runway heading 94
Runway 28 Runway length 10502 ft Runway width 200 ft
Runway elevation 129 ft Runway displaced threshold 500 ft Runway heading 274
Runway 15L Runway length 5000 ft Runway width 100 ft
Runway elevation 142 ft Runway displaced threshold 0 ft Runway heading 144
Runway 33R Runway length 5000 ft Runway width 100 ft
Runway elevation 114 ft Runway displaced threshold 0 ft Runway heading 324
Runway 15R Runway length 9501 ft Runway width 150 ft
Runway elevation 139 ft Runway displaced threshold 0 ft Runway heading 144
Runway 33L Runway length 9501 ft Runway width 150 ft
Runway elevation 129 ft Runway displaced threshold 0 ft Runway heading 324

 AIRPORT FREQUENCIES
Type APP Name POTOMAC AP Frequency 119 MHZ
Type ATIS Name ATIS Frequency 115.1 MHZ
Type CLD Name CLNC DEL Frequency 118.05 MHZ
Type DEP Name POTOMAC DE Frequency 126.75 MHZ
Type GND Name GND Frequency 121.9 MHZ
Type RDO Name LEESBURG R Frequency 122.2 MHZ
Type TWR Name TWR Frequency 119.4 MHZ
Type UNIC Name UNICOM Frequency 122.95 MHZ

 AIRPORT NEAR NAVIGATION AIDS
Type VORTAC Name Baltimore Frequency 115100 KHZ
Type NDB Name Ellicott Frequency 371 KHZ



Powered by Virtual Airlines Manager [v2.6.2]